Time;durP1;ratioP1;P1;durP2;ratioP2;P2;SDS_P1;SDS_P2;PMS_P1;PMS_P2;Temp;Humidity;BMP_temperature;BMP_pressure;BME280_temperature;BME280_humidity;BME280_pressure;Samples;Min_cycle;Max_cycle;Signal;HPM_P1;HPM_P2
2022/01/24 00:01:28;;;;;;;6.10;3.53;;;6.20;99.90;;;;;;5112649;28;20524;-81
2022/01/24 00:03:58;;;;;;;4.30;2.85;;;6.20;99.90;;;;;;5111341;27;20941;-81
2022/01/24 00:06:27;;;;;;;4.95;2.88;;;6.30;99.90;;;;;;5109981;28;20238;-83
2022/01/24 00:08:57;;;;;;;5.47;3.05;;;6.30;99.90;;;;;;5100477;28;20199;-82
2022/01/24 00:11:31;;;;;;;6.00;3.45;;;6.20;99.90;;;;;;5110191;28;20203;-81
2022/01/24 00:17:00;;;;;;;5.30;3.20;;;6.20;99.90;;;;;;5110050;27;20223;-84
2022/01/24 00:27:46;;;;;;;6.88;3.70;;;6.20;99.90;;;;;;5104914;28;20199;-81
2022/01/24 00:30:16;;;;;;;3.22;2.92;;;6.20;99.90;;;;;;5106084;28;20195;-80
2022/01/24 00:32:44;;;;;;;5.00;3.05;;;6.20;99.90;;;;;;5112465;28;20533;-82
2022/01/24 00:35:13;;;;;;;5.15;2.70;;;6.20;99.90;;;;;;5110736;28;20230;-82
2022/01/24 00:37:41;;;;;;;5.90;3.40;;;6.20;99.90;;;;;;5105991;28;20206;-83
2022/01/24 00:40:14;;;;;;;5.82;3.03;;;6.20;99.90;;;;;;5109326;28;20198;-84
2022/01/24 00:42:51;;;;;;;3.95;3.00;;;6.10;99.90;;;;;;5111523;28;20219;-85
2022/01/24 00:45:29;;;;;;;5.57;2.90;;;6.10;99.90;;;;;;5107459;28;20681;-85
2022/01/24 00:48:22;;;;;;;5.10;3.22;;;6.00;99.90;;;;;;5095756;28;20261;-84
2022/01/24 00:53:51;;;;;;;2.88;2.22;;;6.00;99.90;;;;;;5109170;28;20195;-80
2022/01/24 00:56:21;;;;;;;3.90;3.27;;;6.00;99.90;;;;;;5109768;28;20211;-81
2022/01/24 00:58:49;;;;;;;5.50;3.50;;;5.90;99.90;;;;;;5103514;27;20457;-81
2022/01/24 01:01:18;;;;;;;3.83;2.70;;;5.80;99.90;;;;;;5102112;28;20770;-81
2022/01/24 01:03:46;;;;;;;3.30;2.40;;;5.80;99.90;;;;;;5109896;28;20198;-83
2022/01/24 01:06:17;;;;;;;4.45;2.53;;;5.80;99.90;;;;;;5106735;28;21008;-84
2022/01/24 01:19:52;;;;;;;3.90;3.00;;;5.70;99.90;;;;;;5105698;28;20351;-80
2022/01/24 01:22:20;;;;;;;4.10;3.10;;;5.50;99.90;;;;;;5110499;27;20274;-81
2022/01/24 01:24:52;;;;;;;2.60;2.27;;;5.50;99.90;;;;;;5105297;28;20454;-81
2022/01/24 01:27:26;;;;;;;3.63;2.30;;;5.50;99.90;;;;;;5124765;27;20456;-81
2022/01/24 01:29:59;;;;;;;5.97;2.38;;;5.50;99.90;;;;;;5105445;28;20662;-82
2022/01/24 01:32:45;;;;;;;4.00;2.33;;;5.50;99.90;;;;;;5106290;28;20208;-83
2022/01/24 01:35:33;;;;;;;6.53;3.13;;;5.50;99.90;;;;;;5108266;28;20255;-82
2022/01/24 01:57:33;;;;;;;6.80;2.92;;;5.40;99.90;;;;;;5081555;28;20246;-82
2022/01/24 02:00:01;;;;;;;4.00;2.75;;;5.40;99.90;;;;;;5083462;28;20223;-81
2022/01/24 02:02:29;;;;;;;5.32;2.85;;;5.50;99.90;;;;;;5087367;28;20713;-81
2022/01/24 02:04:57;;;;;;;5.60;3.70;;;5.50;99.90;;;;;;5078601;28;20283;-82
2022/01/24 02:07:26;;;;;;;5.70;3.60;;;5.50;99.90;;;;;;5083847;28;20473;-87
2022/01/24 02:09:54;;;;;;;5.80;2.75;;;5.60;99.90;;;;;;5064528;28;20459;-82
2022/01/24 02:12:25;;;;;;;4.90;2.95;;;5.60;99.90;;;;;;5085812;28;20253;-81
2022/01/24 02:14:59;;;;;;;3.70;3.13;;;5.60;99.90;;;;;;5085693;28;20200;-81
2022/01/24 02:17:37;;;;;;;4.18;3.00;;;5.60;99.90;;;;;;5083944;28;20310;-80
2022/01/24 02:20:26;;;;;;;4.93;3.00;;;5.50;99.90;;;;;;5084196;28;20285;-80
2022/01/24 02:23:18;;;;;;;6.30;3.67;;;5.60;99.90;;;;;;5081551;28;20463;-81
2022/01/24 02:25:46;;;;;;;7.20;3.67;;;5.50;99.90;;;;;;5084316;28;20220;-81
2022/01/24 02:28:17;;;;;;;5.72;3.85;;;5.60;99.90;;;;;;5085195;28;20272;-81
2022/01/24 02:30:58;;;;;;;3.85;3.17;;;5.60;99.90;;;;;;5081128;28;20192;-81
2022/01/24 02:33:26;;;;;;;6.93;3.40;;;5.60;99.90;;;;;;5086734;28;20469;-84
2022/01/24 02:35:55;;;;;;;5.00;3.00;;;5.60;99.90;;;;;;5110704;28;20932;-81
2022/01/24 02:38:37;;;;;;;4.28;3.78;;;5.60;99.90;;;;;;5081190;28;20670;-83
2022/01/24 02:49:30;;;;;;;3.67;3.35;;;5.50;99.90;;;;;;5082224;28;20287;-82
2022/01/24 02:52:05;;;;;;;6.00;3.10;;;5.50;99.90;;;;;;5071094;28;20196;-81
2022/01/24 02:54:36;;;;;;;6.07;3.60;;;5.50;99.90;;;;;;5070454;28;20196;-82
2022/01/24 02:57:06;;;;;;;8.20;3.45;;;5.50;99.90;;;;;;5072419;28;20274;-80
2022/01/24 02:59:35;;;;;;;5.78;3.25;;;5.60;99.90;;;;;;5069059;28;20248;-82
2022/01/24 03:02:05;;;;;;;4.55;3.20;;;5.80;99.90;;;;;;5070529;28;20193;-85
2022/01/24 03:04:34;;;;;;;4.57;3.30;;;5.60;99.90;;;;;;5069382;28;20200;-83
2022/01/24 03:07:03;;;;;;;6.30;4.47;;;5.60;99.90;;;;;;5071795;28;20224;-81
2022/01/24 03:09:32;;;;;;;4.70;3.53;;;5.50;99.90;;;;;;5062047;28;20443;-80
2022/01/24 03:12:06;;;;;;;6.30;3.30;;;5.40;99.90;;;;;;5065500;28;20954;-80
2022/01/24 03:14:36;;;;;;;4.33;3.73;;;5.40;99.90;;;;;;5066372;28;20222;-82
2022/01/24 03:17:06;;;;;;;8.98;3.88;;;5.30;99.90;;;;;;5071044;28;20490;-83
2022/01/24 03:19:35;;;;;;;7.20;2.95;;;5.20;99.90;;;;;;5053965;28;20210;-79
2022/01/24 03:22:04;;;;;;;3.25;2.75;;;5.20;99.90;;;;;;5060556;28;20578;-82
2022/01/24 03:24:32;;;;;;;5.47;3.55;;;5.10;99.90;;;;;;5070261;28;20201;-85
2022/01/24 03:27:02;;;;;;;7.45;3.70;;;5.10;99.90;;;;;;5057335;28;20303;-82
2022/01/24 03:29:30;;;;;;;4.20;2.50;;;5.10;99.90;;;;;;5066357;28;20237;-85
2022/01/24 03:31:58;;;;;;;4.70;2.85;;;5.20;99.90;;;;;;5068445;28;20203;-81
2022/01/24 03:34:27;;;;;;;3.72;2.55;;;5.10;99.90;;;;;;5072118;28;20239;-83
2022/01/24 03:36:55;;;;;;;5.70;3.03;;;5.00;99.90;;;;;;5071844;28;20278;-81
2022/01/24 03:39:23;;;;;;;4.82;2.83;;;5.10;99.90;;;;;;5070805;28;20215;-81
2022/01/24 03:41:52;;;;;;;3.63;2.60;;;5.00;99.90;;;;;;5073175;28;20212;-82
2022/01/24 03:44:23;;;;;;;4.05;2.85;;;5.00;99.90;;;;;;5057818;28;20200;-81
2022/01/24 03:47:12;;;;;;;5.68;3.22;;;5.00;99.90;;;;;;5083740;28;20224;-80
2022/01/24 03:49:48;;;;;;;4.90;3.10;;;4.90;99.90;;;;;;5065321;28;20189;-81
2022/01/24 03:52:17;;;;;;;4.65;3.20;;;4.90;99.90;;;;;;5067773;28;20203;-81
2022/01/24 03:54:48;;;;;;;4.28;3.50;;;4.90;99.90;;;;;;5066089;28;20225;-80
2022/01/24 03:57:20;;;;;;;4.22;3.00;;;4.90;99.90;;;;;;5068333;28;20224;-80
2022/01/24 03:59:50;;;;;;;5.25;4.22;;;4.80;99.90;;;;;;5060289;28;20605;-83
2022/01/24 04:02:21;;;;;;;6.30;4.03;;;4.80;99.90;;;;;;5085668;28;20201;-80
2022/01/24 04:04:50;;;;;;;5.50;3.50;;;4.70;99.90;;;;;;5061219;28;20220;-79
2022/01/24 04:07:18;;;;;;;6.00;3.30;;;4.60;99.90;;;;;;5062771;28;20622;-79
2022/01/24 04:09:48;;;;;;;6.78;4.28;;;4.90;99.90;;;;;;5066620;28;20234;-81
2022/01/24 04:12:16;;;;;;;3.65;3.10;;;4.70;99.90;;;;;;5066170;28;20202;-80
2022/01/24 04:15:06;;;;;;;4.65;3.35;;;4.70;99.90;;;;;;5053118;28;20222;-81
2022/01/24 04:17:40;;;;;;;4.35;3.00;;;4.80;99.90;;;;;;5070506;28;20219;-80
2022/01/24 04:22:57;;;;;;;6.47;3.58;;;4.70;99.90;;;;;;5065543;28;20199;-81
2022/01/24 04:25:26;;;;;;;6.18;2.55;;;4.70;99.90;;;;;;5066561;28;20677;-80
2022/01/24 04:27:55;;;;;;;6.68;3.50;;;4.60;99.90;;;;;;5062152;28;20263;-80
2022/01/24 04:30:27;;;;;;;4.20;3.30;;;4.70;99.90;;;;;;5067212;28;20227;-81
2022/01/24 04:32:57;;;;;;;5.53;4.00;;;4.70;99.90;;;;;;5071485;28;20669;-80
2022/01/24 04:35:25;;;;;;;5.57;3.33;;;4.80;99.90;;;;;;5057224;28;20196;-80
2022/01/24 04:37:54;;;;;;;7.70;4.40;;;4.80;99.90;;;;;;5069696;28;20302;-80
2022/01/24 04:40:25;;;;;;;7.07;3.40;;;4.60;99.90;;;;;;5069608;28;20224;-79
2022/01/24 04:43:18;;;;;;;8.50;3.33;;;4.60;99.90;;;;;;5068455;28;20263;-81
2022/01/24 04:46:04;;;;;;;4.53;2.85;;;4.60;99.90;;;;;;5042401;28;20245;-81
2022/01/24 04:51:34;;;;;;;4.93;3.20;;;4.50;99.90;;;;;;5055160;28;20249;-81
2022/01/24 04:54:38;;;;;;;4.53;2.80;;;4.70;99.90;;;;;;5069533;28;20200;-79
2022/01/24 04:57:08;;;;;;;8.25;4.03;;;4.50;99.90;;;;;;5069805;28;20226;-80
2022/01/24 04:59:37;;;;;;;7.65;3.90;;;4.50;99.90;;;;;;5069550;28;20759;-81
2022/01/24 05:02:06;;;;;;;5.43;2.58;;;4.50;99.90;;;;;;5068072;28;20228;-80
2022/01/24 05:04:36;;;;;;;5.30;3.95;;;4.50;99.90;;;;;;5059914;28;20565;-81
2022/01/24 05:07:05;;;;;;;5.90;3.53;;;4.50;99.90;;;;;;5072330;28;20251;-80
2022/01/24 05:09:37;;;;;;;7.50;3.67;;;4.40;99.90;;;;;;5064597;28;20204;-80
2022/01/24 05:12:14;;;;;;;5.72;3.75;;;4.40;99.90;;;;;;5067624;28;20199;-81
2022/01/24 05:25:51;;;;;;;6.32;3.72;;;4.40;99.90;;;;;;5065658;28;21048;-82
2022/01/24 05:28:20;;;;;;;5.72;3.45;;;4.40;99.90;;;;;;5068726;28;20358;-80
2022/01/24 05:30:49;;;;;;;6.32;4.25;;;4.40;99.90;;;;;;5068187;28;20232;-81
2022/01/24 05:33:17;;;;;;;8.15;4.60;;;4.40;99.90;;;;;;5068396;28;20199;-82
2022/01/24 05:35:50;;;;;;;5.47;3.83;;;4.60;99.90;;;;;;5051853;28;20222;-83
2022/01/24 05:38:21;;;;;;;8.73;4.10;;;4.40;99.90;;;;;;5047932;28;20251;-82
2022/01/24 05:40:51;;;;;;;7.35;4.47;;;4.30;99.90;;;;;;5072455;28;20246;-83
2022/01/24 05:43:19;;;;;;;5.22;3.53;;;4.40;99.90;;;;;;5060606;28;20230;-82
2022/01/24 05:45:48;;;;;;;7.28;4.22;;;4.30;99.90;;;;;;5070172;28;20216;-84
2022/01/24 05:48:16;;;;;;;5.18;3.33;;;4.30;99.90;;;;;;5067002;28;20192;-83
2022/01/24 05:50:45;;;;;;;6.95;3.67;;;4.30;99.90;;;;;;5046036;28;20199;-83
2022/01/24 05:53:15;;;;;;;7.68;3.80;;;4.30;99.90;;;;;;5071276;28;20275;-83
2022/01/24 05:55:43;;;;;;;6.70;4.28;;;4.20;99.90;;;;;;5055049;28;20225;-82
2022/01/24 05:58:11;;;;;;;6.95;4.18;;;4.20;99.90;;;;;;5054837;28;20202;-83
2022/01/24 06:00:40;;;;;;;6.30;4.05;;;4.20;99.90;;;;;;5068360;28;20198;-82
2022/01/24 06:03:08;;;;;;;8.38;4.28;;;4.20;99.90;;;;;;5072698;28;20200;-82
2022/01/24 06:05:36;;;;;;;6.43;4.15;;;4.20;99.90;;;;;;5050262;28;20220;-83
2022/01/24 06:08:05;;;;;;;5.50;4.40;;;4.20;99.90;;;;;;5066671;28;20543;-82
2022/01/24 06:10:37;;;;;;;9.02;4.03;;;4.20;99.90;;;;;;5070347;28;20204;-82
2022/01/24 06:13:06;;;;;;;3.97;2.83;;;4.20;99.90;;;;;;5070516;28;20191;-82
2022/01/24 06:15:34;;;;;;;7.95;3.53;;;4.40;99.90;;;;;;5066312;28;20237;-83
2022/01/24 06:18:03;;;;;;;6.93;3.72;;;4.20;99.90;;;;;;5066879;28;20204;-82
2022/01/24 06:20:31;;;;;;;6.45;4.32;;;4.20;99.90;;;;;;5071176;28;20199;-82
2022/01/24 06:22:59;;;;;;;7.50;3.67;;;4.20;99.90;;;;;;5065666;28;20223;-79
2022/01/24 06:25:29;;;;;;;5.75;3.50;;;4.20;99.90;;;;;;5063660;28;20214;-83
2022/01/24 06:27:58;;;;;;;8.10;3.60;;;4.20;99.90;;;;;;5069504;28;20671;-82
2022/01/24 06:30:27;;;;;;;7.93;4.80;;;4.10;99.90;;;;;;5068907;28;20190;-84
2022/01/24 06:32:55;;;;;;;10.50;4.95;;;4.10;99.90;;;;;;5074400;28;20213;-84
2022/01/24 06:35:23;;;;;;;7.88;4.30;;;4.10;99.90;;;;;;5074782;28;20215;-83
2022/01/24 06:37:52;;;;;;;6.32;4.03;;;4.10;99.90;;;;;;5071668;28;20236;-85
2022/01/24 06:40:20;;;;;;;7.20;5.00;;;4.10;99.90;;;;;;5044428;28;20194;-85
2022/01/24 06:42:48;;;;;;;7.05;4.28;;;4.10;99.90;;;;;;5047213;28;20642;-85
2022/01/24 06:45:18;;;;;;;8.35;4.75;;;4.10;99.90;;;;;;5071585;28;20568;-85
2022/01/24 06:47:46;;;;;;;5.15;4.03;;;4.10;99.90;;;;;;5065900;28;20281;-85
2022/01/24 06:50:15;;;;;;;6.90;4.28;;;4.10;99.90;;;;;;5074577;28;20572;-85
2022/01/24 06:52:43;;;;;;;10.75;5.72;;;4.20;99.90;;;;;;5065107;28;20667;-85
2022/01/24 06:55:11;;;;;;;8.88;4.40;;;4.10;99.90;;;;;;5068077;28;20202;-83
2022/01/24 06:57:39;;;;;;;7.60;4.65;;;4.10;99.90;;;;;;5070683;28;20223;-85
2022/01/24 07:00:09;;;;;;;6.82;3.83;;;4.00;99.90;;;;;;5068908;28;20204;-85
2022/01/24 07:02:38;;;;;;;9.32;3.42;;;4.00;99.90;;;;;;5069956;28;20210;-83
2022/01/24 07:05:07;;;;;;;6.05;4.45;;;4.10;99.90;;;;;;5066608;28;20206;-84
2022/01/24 07:07:36;;;;;;;8.50;4.53;;;4.00;99.90;;;;;;5072003;28;20215;-83
2022/01/24 07:10:05;;;;;;;4.07;3.40;;;4.00;99.90;;;;;;5069638;28;20201;-85
2022/01/24 07:12:53;;;;;;;6.97;3.58;;;4.10;99.90;;;;;;5066019;28;20222;-84
2022/01/24 07:15:29;;;;;;;6.15;4.10;;;4.00;99.90;;;;;;5066306;28;20225;-87
2022/01/24 07:18:15;;;;;;;3.97;3.10;;;4.00;99.90;;;;;;5069281;28;20742;-85
2022/01/24 07:20:44;;;;;;;7.20;3.85;;;4.10;99.90;;;;;;5068041;28;20212;-84
2022/01/24 07:23:12;;;;;;;3.25;2.95;;;4.10;99.90;;;;;;5069361;28;20272;-83
2022/01/24 07:25:44;;;;;;;7.50;3.50;;;4.10;99.90;;;;;;5066050;28;20218;-85
2022/01/24 07:28:12;;;;;;;7.05;4.40;;;4.10;99.90;;;;;;5070522;28;20656;-84
2022/01/24 07:30:41;;;;;;;6.47;4.30;;;4.00;99.90;;;;;;5069240;28;20275;-84
2022/01/24 07:33:10;;;;;;;7.47;4.13;;;4.00;99.90;;;;;;5066755;28;20203;-84
2022/01/24 07:35:38;;;;;;;7.00;4.22;;;4.00;99.90;;;;;;5066819;28;20228;-84
2022/01/24 07:38:07;;;;;;;12.50;4.35;;;4.00;99.90;;;;;;5069670;28;20202;-85
2022/01/24 07:40:38;;;;;;;8.55;4.35;;;4.00;99.90;;;;;;5058568;28;20217;-82
2022/01/24 07:43:12;;;;;;;5.85;3.72;;;4.00;99.90;;;;;;5080677;28;20216;-85
2022/01/24 07:45:42;;;;;;;6.05;4.13;;;4.00;99.90;;;;;;5069096;28;20300;-86
2022/01/24 07:48:12;;;;;;;7.95;4.00;;;4.00;99.90;;;;;;5064682;28;20880;-85
2022/01/24 07:50:43;;;;;;;6.10;4.45;;;4.10;99.90;;;;;;5068432;28;20208;-85
2022/01/24 07:53:12;;;;;;;10.43;6.15;;;4.10;99.90;;;;;;5070153;28;20195;-85
2022/01/24 07:56:01;;;;;;;12.05;6.45;;;4.20;99.90;;;;;;5072975;28;20224;-84
2022/01/24 07:58:29;;;;;;;10.13;5.97;;;4.20;99.90;;;;;;5061982;28;20311;-84
2022/01/24 08:00:57;;;;;;;7.20;5.50;;;4.30;99.90;;;;;;5065212;28;21011;-85
2022/01/24 08:03:27;;;;;;;9.98;5.93;;;4.30;99.90;;;;;;5057229;28;20220;-82
2022/01/24 08:05:56;;;;;;;9.07;5.43;;;4.30;99.90;;;;;;5055953;28;20214;-82
2022/01/24 08:08:24;;;;;;;7.43;4.90;;;4.40;99.90;;;;;;5068024;28;20202;-83
2022/01/24 08:10:52;;;;;;;8.63;5.28;;;4.40;99.90;;;;;;5076613;28;20219;-81
2022/01/24 08:13:21;;;;;;;6.45;5.07;;;4.50;99.90;;;;;;5066059;28;20252;-85
2022/01/24 08:15:49;;;;;;;6.78;3.97;;;4.50;99.90;;;;;;5048692;28;20308;-85
2022/01/24 08:18:18;;;;;;;9.52;5.78;;;4.40;99.90;;;;;;5068345;28;20655;-85
2022/01/24 08:20:47;;;;;;;8.15;6.18;;;4.50;99.90;;;;;;5069683;28;20204;-84
2022/01/24 08:23:17;;;;;;;8.90;5.40;;;4.60;99.90;;;;;;5073179;28;20223;-84
2022/01/24 08:25:46;;;;;;;8.60;5.60;;;4.70;99.90;;;;;;5064277;28;20231;-84
2022/01/24 08:28:14;;;;;;;6.75;5.40;;;4.80;99.90;;;;;;5063894;28;20206;-86
2022/01/24 08:30:42;;;;;;;8.80;5.85;;;4.90;99.90;;;;;;5066856;28;20210;-79
2022/01/24 08:33:11;;;;;;;10.98;6.45;;;5.00;99.90;;;;;;5052645;28;20199;-82
2022/01/24 08:35:42;;;;;;;7.97;5.38;;;5.10;99.90;;;;;;5067319;28;20230;-82
2022/01/24 08:38:12;;;;;;;7.00;5.40;;;5.10;99.90;;;;;;5069500;28;20232;-82
2022/01/24 08:40:41;;;;;;;10.18;6.07;;;5.10;99.90;;;;;;5071515;28;20219;-82
2022/01/24 08:43:10;;;;;;;10.25;6.43;;;5.10;99.90;;;;;;5058689;28;20216;-81
2022/01/24 08:45:50;;;;;;;7.70;4.65;;;5.10;99.90;;;;;;5070258;28;20224;-82
2022/01/24 08:48:21;;;;;;;10.20;6.65;;;5.20;99.90;;;;;;5071604;28;20311;-84
2022/01/24 08:50:52;;;;;;;10.35;5.95;;;5.20;99.90;;;;;;5072615;28;20191;-84
2022/01/24 08:53:30;;;;;;;8.48;5.63;;;5.10;99.90;;;;;;5069144;28;20290;-83
2022/01/24 08:56:00;;;;;;;7.82;5.20;;;5.20;99.90;;;;;;5070381;28;20217;-82
2022/01/24 08:58:29;;;;;;;6.68;4.90;;;5.20;99.90;;;;;;5070398;28;20203;-82
2022/01/24 09:00:58;;;;;;;8.32;5.15;;;5.30;99.90;;;;;;5069996;28;20229;-81
2022/01/24 09:03:32;;;;;;;6.65;4.93;;;5.40;99.90;;;;;;5067556;28;20690;-84
2022/01/24 09:06:01;;;;;;;6.75;4.88;;;5.50;99.90;;;;;;5069752;28;20226;-82
2022/01/24 09:08:31;;;;;;;6.70;4.03;;;5.70;99.90;;;;;;5076520;28;20622;-78
2022/01/24 09:10:59;;;;;;;5.78;4.97;;;5.80;99.90;;;;;;5075572;28;20206;-83
2022/01/24 09:13:30;;;;;;;5.53;4.63;;;5.90;99.90;;;;;;5066199;28;20345;-83
2022/01/24 09:15:58;;;;;;;6.13;4.43;;;6.00;99.90;;;;;;5064349;28;20290;-82
2022/01/24 09:18:27;;;;;;;4.88;4.03;;;5.90;99.90;;;;;;5075493;28;20264;-82
2022/01/24 09:20:55;;;;;;;5.43;4.50;;;6.00;99.90;;;;;;5064879;28;20323;-82
2022/01/24 09:23:24;;;;;;;4.38;3.53;;;6.10;99.90;;;;;;5069284;28;20256;-81
2022/01/24 09:25:54;;;;;;;6.03;3.85;;;6.20;99.90;;;;;;5050852;28;20278;-82
2022/01/24 09:28:23;;;;;;;7.40;4.90;;;6.30;99.90;;;;;;5056763;28;20197;-86
2022/01/24 09:30:52;;;;;;;5.43;4.38;;;6.30;99.90;;;;;;5067682;28;20974;-86
2022/01/24 09:33:21;;;;;;;6.75;5.57;;;6.40;99.90;;;;;;5047897;28;21892;-83
2022/01/24 09:35:58;;;;;;;5.28;3.10;;;6.50;99.90;;;;;;5066731;28;20251;-83
2022/01/24 09:38:29;;;;;;;4.60;3.53;;;6.60;99.90;;;;;;5067642;28;20192;-83
2022/01/24 09:41:01;;;;;;;5.87;3.30;;;6.70;99.90;;;;;;5082395;28;20198;-87
2022/01/24 09:43:30;;;;;;;4.70;3.63;;;6.90;99.90;;;;;;5084876;28;20630;-83
2022/01/24 09:45:59;;;;;;;7.15;3.30;;;6.90;99.90;;;;;;5069060;28;20478;-82
2022/01/24 09:48:29;;;;;;;6.80;4.00;;;6.90;99.90;;;;;;5068561;28;20725;-83
2022/01/24 09:50:57;;;;;;;4.70;3.13;;;7.00;99.90;;;;;;5071830;28;20480;-82
2022/01/24 09:53:30;;;;;;;4.63;3.27;;;7.30;99.90;;;;;;5071897;28;20460;-82
2022/01/24 09:56:03;;;;;;;4.87;2.87;;;7.70;99.90;;;;;;5073056;28;21220;-83
2022/01/24 09:58:32;;;;;;;3.73;3.13;;;8.00;99.90;;;;;;5068682;28;20458;-82
2022/01/24 10:01:02;;;;;;;3.87;2.73;;;8.30;99.90;;;;;;5073615;28;20458;-82
2022/01/24 10:03:31;;;;;;;4.67;3.20;;;8.60;99.90;;;;;;5071991;28;21049;-86
2022/01/24 10:06:11;;;;;;;6.17;3.33;;;8.90;99.90;;;;;;5075779;28;20895;-79
2022/01/24 10:08:39;;;;;;;4.83;2.80;;;9.20;99.90;;;;;;5068676;28;20477;-77
2022/01/24 10:11:09;;;;;;;4.50;3.75;;;9.50;99.90;;;;;;5070492;28;20448;-79
2022/01/24 10:16:31;;;;;;;3.90;2.67;;;9.90;99.90;;;;;;5064644;28;20496;-84
2022/01/24 10:19:11;;;;;;;3.13;2.83;;;10.20;99.90;;;;;;5071637;28;20905;-85
2022/01/24 10:22:01;;;;;;;4.37;3.97;;;10.50;99.90;;;;;;5076620;28;20469;-82
2022/01/24 10:24:35;;;;;;;3.93;3.20;;;10.80;99.90;;;;;;5055823;28;20563;-83
2022/01/24 10:27:15;;;;;;;3.07;2.80;;;10.90;99.90;;;;;;5075293;28;20805;-84
2022/01/24 10:29:49;;;;;;;3.83;3.00;;;11.00;99.90;;;;;;5079894;28;20481;-83
2022/01/24 10:32:37;;;;;;;3.10;2.67;;;11.20;99.90;;;;;;5077003;28;20864;-82
2022/01/24 10:35:31;;;;;;;4.53;2.87;;;11.40;99.90;;;;;;5075484;28;20972;-84
2022/01/24 10:38:27;;;;;;;4.73;3.30;;;11.40;99.90;;;;;;5072584;28;20885;-84
2022/01/24 10:41:09;;;;;;;3.50;2.67;;;11.40;99.90;;;;;;5068555;28;20448;-82
2022/01/24 10:43:41;;;;;;;3.70;2.83;;;11.60;99.90;;;;;;5075112;28;20525;-84
2022/01/24 10:46:10;;;;;;;3.00;2.73;;;11.20;99.90;;;;;;5069561;28;20490;-84
2022/01/24 10:48:41;;;;;;;3.10;2.67;;;11.60;99.90;;;;;;5070400;28;20546;-85
2022/01/24 10:51:13;;;;;;;3.37;3.00;;;11.60;99.90;;;;;;5069125;28;20541;-83
2022/01/24 10:53:45;;;;;;;2.70;2.50;;;11.50;99.90;;;;;;5073419;28;20448;-86
2022/01/24 10:56:35;;;;;;;3.60;3.30;;;11.60;99.90;;;;;;5055144;28;20510;-88
2022/01/24 10:59:18;;;;;;;3.67;3.38;;;11.60;99.90;;;;;;5069001;28;20442;-84
2022/01/24 11:01:47;;;;;;;3.23;2.30;;;11.80;99.90;;;;;;5071499;28;20214;-83
2022/01/24 11:04:17;;;;;;;3.47;3.17;;;11.90;99.90;;;;;;5092467;28;20497;-83
2022/01/24 11:06:48;;;;;;;4.63;2.80;;;11.90;99.90;;;;;;5075492;28;20488;-82
2022/01/24 11:09:21;;;;;;;2.40;2.20;;;11.80;99.90;;;;;;5071303;28;20484;-84
2022/01/24 11:11:52;;;;;;;2.83;2.47;;;11.60;99.90;;;;;;5053934;28;20485;-87
2022/01/24 11:14:24;;;;;;;3.93;2.37;;;11.40;99.90;;;;;;5060573;28;20465;-84
2022/01/24 11:16:53;;;;;;;2.77;2.47;;;11.50;99.90;;;;;;5068810;28;20566;-85
2022/01/24 11:19:28;;;;;;;2.73;2.53;;;11.70;99.90;;;;;;5071585;28;20954;-85
2022/01/24 11:21:59;;;;;;;4.07;3.10;;;11.90;99.90;;;;;;5080198;28;20821;-85
2022/01/24 11:24:37;;;;;;;3.70;2.93;;;12.00;99.90;;;;;;5068596;28;20923;-86
2022/01/24 11:27:27;;;;;;;4.23;2.70;;;12.30;99.90;;;;;;5073904;28;20479;-86
2022/01/24 11:30:01;;;;;;;2.63;2.20;;;12.40;99.90;;;;;;5069674;28;20459;-83
2022/01/24 11:32:32;;;;;;;4.00;2.43;;;12.40;99.90;;;;;;5067082;28;20555;-85
2022/01/24 11:35:01;;;;;;;5.00;2.63;;;12.50;99.90;;;;;;5068577;28;20475;-85
2022/01/24 11:37:35;;;;;;;3.40;3.13;;;12.70;99.90;;;;;;5073361;28;20575;-83
2022/01/24 11:40:07;;;;;;;3.77;3.17;;;12.70;99.90;;;;;;5068338;28;20533;-87
2022/01/24 11:42:36;;;;;;;5.10;4.17;;;12.70;99.90;;;;;;5070808;28;20471;-85
2022/01/24 11:45:55;;;;;;;6.50;2.93;;;12.70;99.90;;;;;;5064937;28;20473;-84
2022/01/24 11:48:24;;;;;;;3.30;2.30;;;12.60;99.90;;;;;;5069167;28;20464;-85
2022/01/24 11:50:58;;;;;;;3.33;2.83;;;12.50;99.90;;;;;;5055294;28;20913;-81
2022/01/24 11:53:29;;;;;;;3.10;2.27;;;12.40;99.90;;;;;;5069699;28;20452;-83
2022/01/24 11:56:16;;;;;;;3.00;2.80;;;12.10;99.90;;;;;;5079708;28;20469;-85
2022/01/24 11:58:44;;;;;;;3.43;2.73;;;12.00;99.90;;;;;;5063310;28;20466;-85
2022/01/24 12:01:34;;;;;;;2.70;2.47;;;11.90;99.90;;;;;;5066011;28;20554;-83
2022/01/24 12:04:03;;;;;;;3.00;2.70;;;11.90;99.90;;;;;;5067927;28;20454;-83
2022/01/24 12:06:31;;;;;;;4.00;2.47;;;11.90;99.90;;;;;;5073830;28;20475;-83
2022/01/24 12:09:24;;;;;;;3.57;3.20;;;11.90;99.90;;;;;;5072109;28;20831;-85
2022/01/24 12:11:54;;;;;;;3.20;2.73;;;11.90;99.90;;;;;;5065418;28;20501;-84
2022/01/24 12:14:40;;;;;;;4.87;2.80;;;11.90;99.90;;;;;;5070965;28;20463;-85
2022/01/24 12:17:11;;;;;;;4.10;3.60;;;11.90;99.90;;;;;;5070664;28;20485;-84
2022/01/24 12:19:40;;;;;;;2.93;2.70;;;11.90;99.90;;;;;;5058793;28;20466;-83
2022/01/24 12:22:37;;;;;;;4.97;3.40;;;11.90;99.90;;;;;;5069115;28;20459;-84
2022/01/24 12:25:09;;;;;;;2.80;2.50;;;11.90;99.90;;;;;;5082843;28;20488;-84
2022/01/24 12:28:16;;;;;;;3.80;3.40;;;11.90;99.90;;;;;;5074562;28;20916;-85
2022/01/24 12:31:02;;;;;;;2.70;2.50;;;11.90;99.90;;;;;;5077435;28;20462;-84
2022/01/24 12:33:33;;;;;;;3.40;2.40;;;11.90;99.90;;;;;;5069135;28;20454;-84
2022/01/24 12:36:03;;;;;;;2.77;2.53;;;12.00;99.90;;;;;;5069025;28;20464;-84
2022/01/24 12:38:42;;;;;;;2.80;2.60;;;12.00;99.90;;;;;;5068756;28;20454;-84
2022/01/24 12:41:18;;;;;;;3.33;3.03;;;12.00;99.90;;;;;;5051011;28;21384;-84
2022/01/24 12:43:57;;;;;;;3.00;2.53;;;12.10;99.90;;;;;;5072284;28;20834;-82
2022/01/24 12:46:27;;;;;;;2.90;2.50;;;11.90;99.90;;;;;;5070767;28;20473;-86
2022/01/24 12:48:59;;;;;;;3.73;2.70;;;11.90;99.90;;;;;;5072780;28;20450;-83
2022/01/24 12:51:28;;;;;;;5.27;3.60;;;11.80;99.90;;;;;;5065571;28;20462;-82
2022/01/24 12:53:58;;;;;;;3.63;2.50;;;11.70;99.90;;;;;;5067888;28;20462;-83
2022/01/24 12:56:28;;;;;;;3.20;2.90;;;11.60;99.90;;;;;;5067794;28;20462;-84
2022/01/24 12:58:57;;;;;;;5.53;2.37;;;11.70;99.90;;;;;;5066156;28;20454;-86
2022/01/24 13:01:28;;;;;;;2.53;2.33;;;11.80;99.90;;;;;;5087005;28;20449;-83
2022/01/24 13:04:02;;;;;;;2.50;2.30;;;11.80;99.90;;;;;;5065444;28;20481;-86
2022/01/24 13:06:35;;;;;;;2.40;2.13;;;11.80;99.90;;;;;;5067138;28;20559;-83
2022/01/24 13:09:11;;;;;;;2.37;2.17;;;11.90;99.90;;;;;;5068518;28;20455;-84
2022/01/24 13:11:46;;;;;;;3.80;2.03;;;11.90;99.90;;;;;;5087464;28;20464;-81
2022/01/24 13:14:20;;;;;;;2.30;2.10;;;11.90;99.90;;;;;;5065486;28;20463;-82
2022/01/24 13:22:32;;;;;;;2.37;2.10;;;11.90;99.90;;;;;;5071698;28;20461;-83
2022/01/24 13:25:12;;;;;;;3.20;2.90;;;12.00;99.90;;;;;;5066313;28;20482;-83
2022/01/24 13:27:43;;;;;;;3.13;2.83;;;12.00;99.90;;;;;;5069044;28;20532;-84
2022/01/24 13:30:22;;;;;;;2.57;2.37;;;12.00;99.90;;;;;;5092092;28;20467;-83
2022/01/24 13:32:52;;;;;;;3.33;2.37;;;11.90;99.90;;;;;;5069991;28;20872;-81
2022/01/24 13:35:29;;;;;;;3.10;2.30;;;12.00;99.90;;;;;;5063256;28;20870;-80
2022/01/24 13:37:59;;;;;;;2.13;1.93;;;12.00;99.90;;;;;;5067150;28;21030;-82
2022/01/24 13:40:39;;;;;;;3.60;2.47;;;12.10;99.90;;;;;;5073808;28;20537;-87
2022/01/24 13:43:09;;;;;;;2.60;2.40;;;12.10;99.90;;;;;;5080951;28;20433;-84
2022/01/24 13:45:40;;;;;;;2.17;1.97;;;12.10;99.90;;;;;;5078549;28;21016;-82
2022/01/24 13:48:18;;;;;;;2.50;2.30;;;12.10;99.90;;;;;;5073783;28;20893;-83
2022/01/24 13:50:54;;;;;;;2.43;2.03;;;12.10;99.90;;;;;;5075057;28;20466;-83
2022/01/24 13:53:34;;;;;;;3.70;2.40;;;12.20;99.90;;;;;;5070931;28;20470;-84
2022/01/24 13:56:17;;;;;;;2.23;1.97;;;12.20;99.90;;;;;;5066796;28;21175;-84
2022/01/24 13:59:02;;;;;;;2.30;2.10;;;12.20;99.90;;;;;;5085178;28;20493;-85
2022/01/24 14:01:31;;;;;;;5.57;2.23;;;12.10;99.90;;;;;;5068545;28;20557;-83
2022/01/24 14:04:01;;;;;;;3.10;2.53;;;12.10;99.90;;;;;;5047752;28;20810;-85
2022/01/24 14:06:33;;;;;;;2.03;1.83;;;12.00;99.90;;;;;;5073382;28;20474;-85
2022/01/24 14:09:11;;;;;;;2.27;2.07;;;12.00;99.90;;;;;;5064380;28;20444;-84
2022/01/24 14:11:45;;;;;;;2.23;1.80;;;12.00;99.90;;;;;;5064755;28;20537;-85
2022/01/24 14:14:17;;;;;;;3.33;1.90;;;12.00;99.90;;;;;;5070101;28;20840;-84
2022/01/24 14:16:55;;;;;;;2.03;1.83;;;12.00;99.90;;;;;;5070682;28;20486;-83
2022/01/24 14:19:35;;;;;;;2.57;2.37;;;12.00;99.90;;;;;;5066775;28;20494;-84
2022/01/24 14:22:10;;;;;;;2.67;1.73;;;12.00;99.90;;;;;;5087389;28;20520;-85
2022/01/24 14:24:47;;;;;;;2.70;2.00;;;12.00;99.90;;;;;;5065302;28;20453;-83
2022/01/24 14:27:31;;;;;;;4.57;1.87;;;12.00;99.90;;;;;;5051642;28;20475;-85
2022/01/24 14:30:21;;;;;;;2.50;1.90;;;12.00;99.90;;;;;;5061830;28;20443;-85
2022/01/24 14:33:11;;;;;;;2.33;1.70;;;12.00;99.90;;;;;;5064765;28;20456;-83
2022/01/24 14:35:48;;;;;;;2.30;2.10;;;12.00;99.90;;;;;;5067924;28;20569;-83
2022/01/24 14:38:29;;;;;;;2.70;2.13;;;11.90;99.90;;;;;;5069054;28;20480;-85
2022/01/24 14:41:01;;;;;;;2.50;1.60;;;11.90;99.90;;;;;;5064129;28;20786;-84